X  Close Metar Aviation Weather Data     KSLC Salt Lake City International Airport
Temperature
29°C Temperature
6°C Dewpoint
23% Humidity



Wind
26 KM/H
16 MPH
7 M/S
14 KTS



140°
SE
Current Conditions

Partly Cloudy Partly Cloudy
Pressure 1019.98 (hPa) - 30.12 (inHg)
Visibility 10 (mile) - 16.1 (km)
Airport
Airport-code KSLC

Location: Salt Lake City International Airport
Distance: 15 (km)

Metar:
KSLC 210654Z 14014KT 10SM FEW160 29/06 A3012 RMK AO2 SLP130 T02940056 403780239 $

Time: 2024-07-21 00:54 MDT